Time,TemperatureF,DewpointF,PressureIn,WindDirection,WindDirectionDegrees,WindSpeedMPH,WindSpeedGustMPH,Humidity,HourlyPrecipIn,Conditions,Clouds,dailyrainin,SoftwareType,DateUTC
2013-04-25 00:00:00,47.0,44.2,29.74,SE,129,4.0,4.0,90,0.00,,,0.05,Wunderground v.1.15,2013-04-25 04:00:00,
2013-04-25 00:05:00,46.9,44.4,29.74,SSE,164,3.0,5.0,91,0.00,,,0.00,Wunderground v.1.15,2013-04-25 04:05:00,
2013-04-25 00:10:00,46.8,44.3,29.74,SSE,154,3.0,6.0,91,0.00,,,0.00,Wunderground v.1.15,2013-04-25 04:10:00,
2013-04-25 00:15:00,46.8,44.3,29.74,SSE,158,3.0,6.0,91,0.00,,,0.00,Wunderground v.1.15,2013-04-25 04:15:00,
2013-04-25 00:20:00,46.8,44.3,29.74,South,186,4.0,5.0,91,0.00,,,0.00,Wunderground v.1.15,2013-04-25 04:20:00,
2013-04-25 00:25:00,46.8,44.3,29.75,WSW,239,4.0,6.0,91,0.00,,,0.00,Wunderground v.1.15,2013-04-25 04:25:00,
2013-04-25 00:30:00,46.7,44.5,29.74,WSW,240,5.0,5.0,92,0.00,,,0.00,Wunderground v.1.15,2013-04-25 04:30:00,
2013-04-25 00:35:00,46.7,44.5,29.74,SSW,192,5.0,8.0,92,0.00,,,0.00,Wunderground v.1.15,2013-04-25 04:35:00,
2013-04-25 00:40:00,46.8,44.6,29.74,SSW,198,6.0,6.0,92,0.00,,,0.00,Wunderground v.1.15,2013-04-25 04:40:00,
2013-04-25 00:45:00,46.9,45.0,29.74,WSW,241,7.0,7.0,93,0.00,,,0.00,Wunderground v.1.15,2013-04-25 04:45:00,
2013-04-25 00:50:00,47.0,45.1,29.75,SW,220,7.0,7.0,93,0.00,,,0.00,Wunderground v.1.15,2013-04-25 04:50:00,
2013-04-25 01:00:00,47.1,44.9,29.75,WSW,242,6.0,6.0,92,0.00,,,0.00,Wunderground v.1.15,2013-04-25 05:00:00,
2013-04-25 01:10:00,46.9,45.0,29.75,SW,215,8.0,8.0,93,0.00,,,0.00,Wunderground v.1.15,2013-04-25 05:10:00,
2013-04-25 01:15:00,46.8,44.9,29.75,SW,215,7.0,8.0,93,0.00,,,0.00,Wunderground v.1.15,2013-04-25 05:15:00,
2013-04-25 01:20:00,46.6,44.7,29.74,SW,215,6.0,8.0,93,0.00,,,0.00,Wunderground v.1.15,2013-04-25 05:20:00,
2013-04-25 01:25:00,46.6,44.7,29.74,SSE,162,7.0,8.0,93,0.00,,,0.00,Wunderground v.1.15,2013-04-25 05:25:00,
2013-04-25 01:30:00,46.6,44.7,29.73,SSW,196,7.0,13.0,93,0.00,,,0.00,Wunderground v.1.15,2013-04-25 05:30:00,
2013-04-25 01:35:00,46.5,44.6,29.74,SW,236,7.0,13.0,93,0.00,,,0.00,Wunderground v.1.15,2013-04-25 05:35:00,
2013-04-25 01:40:00,46.5,44.9,29.74,SSW,198,8.0,12.0,94,0.00,,,0.00,Wunderground v.1.15,2013-04-25 05:40:00,
2013-04-25 01:45:00,46.4,44.8,29.74,SSE,158,8.0,12.0,94,0.00,,,0.00,Wunderground v.1.15,2013-04-25 05:45:00,
2013-04-25 01:50:00,46.4,44.8,29.74,SSW,202,7.0,15.0,94,0.00,,,0.00,Wunderground v.1.15,2013-04-25 05:50:00,
2013-04-25 01:55:00,46.4,44.8,29.73,SSW,192,7.0,15.0,94,0.00,,,0.00,Wunderground v.1.15,2013-04-25 05:55:00,
2013-04-25 02:01:00,46.4,44.8,29.74,West,264,7.0,7.0,94,0.00,,,0.00,Wunderground v.1.15,2013-04-25 06:01:00,
2013-04-25 02:05:00,46.5,44.9,29.74,West,260,7.0,7.0,94,0.00,,,0.00,Wunderground v.1.15,2013-04-25 06:05:00,
2013-04-25 02:10:00,46.5,44.9,29.74,South,187,7.0,8.0,94,0.00,,,0.00,Wunderground v.1.15,2013-04-25 06:10:00,
2013-04-25 02:15:00,46.5,44.9,29.74,WSW,254,7.0,10.0,94,0.00,,,0.00,Wunderground v.1.15,2013-04-25 06:15:00,
2013-04-25 02:20:00,46.4,44.8,29.75,West,260,7.0,9.0,94,0.00,,,0.00,Wunderground v.1.15,2013-04-25 06:20:00,
2013-04-25 02:25:00,46.4,44.8,29.74,WSW,253,7.0,9.0,94,0.00,,,0.00,Wunderground v.1.15,2013-04-25 06:25:00,
2013-04-25 02:30:00,46.4,44.8,29.74,SSW,202,6.0,6.0,94,0.00,,,0.00,Wunderground v.1.15,2013-04-25 06:30:00,
2013-04-25 02:35:00,46.4,44.8,29.74,ENE,65,6.0,6.0,94,0.00,,,0.00,Wunderground v.1.15,2013-04-25 06:35:00,
2013-04-25 02:40:00,46.3,44.7,29.74,SW,234,6.0,9.0,94,0.00,,,0.00,Wunderground v.1.15,2013-04-25 06:40:00,
2013-04-25 02:45:00,46.3,44.7,29.74,WSW,242,6.0,9.0,94,0.00,,,0.00,Wunderground v.1.15,2013-04-25 06:45:00,
2013-04-25 02:50:00,46.3,44.7,29.73,WSW,239,6.0,7.0,94,0.00,,,0.00,Wunderground v.1.15,2013-04-25 06:50:00,
2013-04-25 02:55:00,46.3,44.9,29.73,South,184,6.0,7.0,95,0.00,,,0.00,Wunderground v.1.15,2013-04-25 06:55:00,
2013-04-25 03:00:00,46.4,45.0,29.73,South,170,7.0,11.0,95,0.00,,,0.00,Wunderground v.1.15,2013-04-25 07:00:00,
2013-04-25 03:10:00,46.4,45.0,29.74,SW,220,7.0,7.0,95,0.00,,,0.00,Wunderground v.1.15,2013-04-25 07:10:00,
2013-04-25 03:15:00,46.4,45.0,29.75,SSW,206,6.0,7.0,95,0.00,,,0.00,Wunderground v.1.15,2013-04-25 07:15:00,
2013-04-25 03:20:00,46.4,45.0,29.76,SW,235,6.0,6.0,95,0.00,,,0.00,Wunderground v.1.15,2013-04-25 07:20:00,
2013-04-25 03:25:00,46.5,45.1,29.75,SW,225,5.0,9.0,95,0.00,,,0.00,Wunderground v.1.15,2013-04-25 07:25:00,
2013-04-25 03:30:00,46.5,45.1,29.75,SW,230,5.0,7.0,95,0.00,,,0.00,Wunderground v.1.15,2013-04-25 07:30:00,
2013-04-25 03:35:00,46.5,45.1,29.76,SW,229,5.0,7.0,95,0.00,,,0.00,Wunderground v.1.15,2013-04-25 07:35:00,
2013-04-25 03:40:00,46.5,45.1,29.76,SW,225,5.0,5.0,95,0.00,,,0.00,Wunderground v.1.15,2013-04-25 07:40:00,
2013-04-25 03:45:00,46.4,45.0,29.76,SW,225,6.0,6.0,95,0.00,,,0.00,Wunderground v.1.15,2013-04-25 07:45:00,
2013-04-25 03:50:00,46.4,45.0,29.75,WSW,237,5.0,5.0,95,0.00,,,0.00,Wunderground v.1.15,2013-04-25 07:50:00,
2013-04-25 03:55:00,46.4,45.0,29.75,WSW,244,5.0,8.0,95,0.00,,,0.00,Wunderground v.1.15,2013-04-25 07:55:00,
2013-04-25 04:01:00,46.4,45.0,29.75,SSW,209,5.0,7.0,95,0.00,,,0.00,Wunderground v.1.15,2013-04-25 08:01:00,
2013-04-25 04:05:00,46.4,45.0,29.75,SW,215,5.0,7.0,95,0.00,,,0.00,Wunderground v.1.15,2013-04-25 08:05:00,
2013-04-25 04:10:00,46.3,44.9,29.75,WNW,290,5.0,7.0,95,0.00,,,0.00,Wunderground v.1.15,2013-04-25 08:10:00,
2013-04-25 04:16:00,46.3,44.9,29.76,WSW,251,4.0,8.0,95,0.00,,,0.00,Wunderground v.1.15,2013-04-25 08:16:00,
2013-04-25 04:25:00,46.5,45.1,29.76,South,169,6.0,9.0,95,0.00,,,0.00,Wunderground v.1.15,2013-04-25 08:25:00,
2013-04-25 04:30:00,46.5,45.4,29.76,SW,215,6.0,6.0,96,0.00,,,0.00,Wunderground v.1.15,2013-04-25 08:30:00,
2013-04-25 04:35:00,46.5,45.1,29.77,SW,215,6.0,6.0,95,0.00,,,0.00,Wunderground v.1.15,2013-04-25 08:35:00,
2013-04-25 04:40:00,46.5,45.4,29.78,South,185,5.0,5.0,96,0.00,,,0.00,Wunderground v.1.15,2013-04-25 08:40:00,
2013-04-25 04:45:00,46.6,45.5,29.78,SSW,203,6.0,6.0,96,0.00,,,0.00,Wunderground v.1.15,2013-04-25 08:45:00,
2013-04-25 04:51:00,46.6,45.5,29.78,South,174,6.0,6.0,96,0.00,,,0.00,Wunderground v.1.15,2013-04-25 08:51:00,
2013-04-25 04:56:00,46.7,45.6,29.78,SW,225,5.0,6.0,96,0.00,,,0.01,Wunderground v.1.15,2013-04-25 08:56:00,
2013-04-25 05:01:00,46.9,45.8,29.78,WSW,247,6.0,10.0,96,0.00,,,0.01,Wunderground v.1.15,2013-04-25 09:01:00,
2013-04-25 05:05:00,47.0,45.9,29.78,WSW,245,5.0,10.0,96,0.00,,,0.01,Wunderground v.1.15,2013-04-25 09:05:00,
2013-04-25 05:10:00,47.0,45.9,29.80,SW,215,6.0,8.0,96,0.00,,,0.01,Wunderground v.1.15,2013-04-25 09:10:00,
2013-04-25 05:15:00,47.0,45.9,29.79,WSW,239,6.0,8.0,96,0.00,,,0.01,Wunderground v.1.15,2013-04-25 09:15:00,
2013-04-25 05:20:00,47.0,45.9,29.79,SW,225,5.0,7.0,96,0.00,,,0.01,Wunderground v.1.15,2013-04-25 09:20:00,
2013-04-25 05:26:00,47.0,45.9,29.78,SSW,208,5.0,7.0,96,0.00,,,0.01,Wunderground v.1.15,2013-04-25 09:26:00,
2013-04-25 05:31:00,47.2,46.1,29.78,SSW,201,5.0,5.0,96,0.00,,,0.01,Wunderground v.1.15,2013-04-25 09:31:00,
2013-04-25 05:36:00,47.4,46.3,29.78,SSW,196,5.0,6.0,96,0.00,,,0.01,Wunderground v.1.15,2013-04-25 09:36:00,
2013-04-25 05:41:00,47.5,46.4,29.79,SSW,206,5.0,6.0,96,0.00,,,0.01,Wunderground v.1.15,2013-04-25 09:41:00,
2013-04-25 05:46:00,47.4,46.3,29.79,SSW,210,5.0,6.0,96,0.00,,,0.01,Wunderground v.1.15,2013-04-25 09:46:00,
2013-04-25 05:50:00,47.4,46.3,29.80,SW,233,5.0,5.0,96,0.00,,,0.01,Wunderground v.1.15,2013-04-25 09:50:00,
2013-04-25 05:55:00,47.3,46.2,29.79,South,178,4.0,5.0,96,0.00,,,0.02,Wunderground v.1.15,2013-04-25 09:55:00,
2013-04-25 06:01:00,47.4,46.3,29.79,South,189,4.0,5.0,96,0.14,,,0.03,Wunderground v.1.15,2013-04-25 10:01:00,
2013-04-25 06:05:00,47.6,46.8,29.80,WSW,244,5.0,7.0,97,0.07,,,0.03,Wunderground v.1.15,2013-04-25 10:05:00,
2013-04-25 06:10:00,47.7,46.9,29.80,SW,235,5.0,7.0,97,0.04,,,0.03,Wunderground v.1.15,2013-04-25 10:10:00,
2013-04-25 06:16:00,47.9,47.1,29.82,WSW,238,5.0,7.0,97,0.00,,,0.03,Wunderground v.1.15,2013-04-25 10:16:00,
2013-04-25 06:21:00,47.9,46.8,29.81,WSW,242,5.0,5.0,96,0.00,,,0.03,Wunderground v.1.15,2013-04-25 10:21:00,
2013-04-25 06:26:00,47.8,46.7,29.82,SSW,200,5.0,9.0,96,0.00,,,0.03,Wunderground v.1.15,2013-04-25 10:26:00,
2013-04-25 06:30:00,47.8,46.7,29.83,SW,225,5.0,6.0,96,0.00,,,0.03,Wunderground v.1.15,2013-04-25 10:30:00,
2013-04-25 06:35:00,47.9,47.1,29.83,SSW,200,5.0,6.0,97,0.00,,,0.03,Wunderground v.1.15,2013-04-25 10:35:00,
2013-04-25 06:40:00,48.3,47.5,29.83,WSW,256,5.0,7.0,97,0.00,,,0.03,Wunderground v.1.15,2013-04-25 10:40:00,
2013-04-25 06:45:00,49.1,48.3,29.83,West,260,7.0,7.0,97,0.00,,,0.03,Wunderground v.1.15,2013-04-25 10:45:00,
2013-04-25 06:51:00,49.4,48.6,29.83,WSW,256,8.0,8.0,97,0.00,,,0.03,Wunderground v.1.15,2013-04-25 10:51:00,
2013-04-25 06:56:00,49.4,48.3,29.83,WSW,241,6.0,8.0,96,0.00,,,0.03,Wunderground v.1.15,2013-04-25 10:56:00,
2013-04-25 07:01:00,49.6,48.5,29.83,WSW,246,6.0,6.0,96,0.00,,,0.03,Wunderground v.1.15,2013-04-25 11:01:00,
2013-04-25 07:05:00,49.7,48.6,29.83,WSW,248,8.0,11.0,96,0.00,,,0.03,Wunderground v.1.15,2013-04-25 11:05:00,
2013-04-25 07:10:00,50.2,48.8,29.84,WSW,251,8.0,9.0,95,0.00,,,0.03,Wunderground v.1.15,2013-04-25 11:10:00,
2013-04-25 07:15:00,50.5,48.6,29.84,WNW,291,9.0,12.0,93,0.00,,,0.03,Wunderground v.1.15,2013-04-25 11:15:00,
2013-04-25 07:20:00,51.1,47.4,29.85,WNW,285,11.0,12.0,87,0.00,,,0.03,Wunderground v.1.15,2013-04-25 11:20:00,
2013-04-25 07:26:00,51.4,46.1,29.85,WNW,285,14.0,17.0,82,0.00,,,0.03,Wunderground v.1.15,2013-04-25 11:26:00,
2013-04-25 07:31:00,51.0,44.4,29.85,NW,309,16.0,18.0,78,0.00,,,0.03,Wunderground v.1.15,2013-04-25 11:31:00,
2013-04-25 07:36:00,50.9,42.6,29.86,WNW,301,18.0,18.0,73,0.00,,,0.03,Wunderground v.1.15,2013-04-25 11:36:00,
2013-04-25 07:41:00,50.6,41.9,29.86,NW,316,18.0,21.0,72,0.00,,,0.03,Wunderground v.1.15,2013-04-25 11:41:00,
2013-04-25 07:46:00,50.7,41.3,29.86,NW,314,18.0,21.0,70,0.00,,,0.03,Wunderground v.1.15,2013-04-25 11:46:00,
2013-04-25 07:51:00,50.7,40.9,29.87,NW,305,18.0,18.0,69,0.00,,,0.03,Wunderground v.1.15,2013-04-25 11:51:00,
2013-04-25 07:56:00,50.5,40.3,29.87,WNW,302,15.0,18.0,68,0.00,,,0.03,Wunderground v.1.15,2013-04-25 11:56:00,
2013-04-25 08:01:00,50.5,40.3,29.88,NW,307,15.0,15.0,68,0.00,,,0.03,Wunderground v.1.15,2013-04-25 12:01:00,
2013-04-25 08:06:00,50.1,40.7,29.88,NW,308,15.0,15.0,70,0.00,,,0.03,Wunderground v.1.15,2013-04-25 12:06:00,
2013-04-25 08:11:00,50.0,40.6,29.89,NW,312,15.0,15.0,70,0.00,,,0.03,Wunderground v.1.15,2013-04-25 12:11:00,
2013-04-25 08:16:00,50.1,40.3,29.89,NW,312,15.0,16.0,69,0.00,,,0.03,Wunderground v.1.15,2013-04-25 12:16:00,
2013-04-25 08:21:00,50.0,40.6,29.89,NW,318,15.0,15.0,70,0.00,,,0.03,Wunderground v.1.15,2013-04-25 12:21:00,
2013-04-25 08:26:00,50.0,40.6,29.90,NW,311,14.0,16.0,70,0.00,,,0.03,Wunderground v.1.15,2013-04-25 12:26:00,
2013-04-25 08:31:00,49.8,40.8,29.91,NW,308,14.0,15.0,71,0.00,,,0.03,Wunderground v.1.15,2013-04-25 12:31:00,
2013-04-25 08:36:00,49.5,40.8,29.91,NW,312,14.0,15.0,72,0.00,,,0.03,Wunderground v.1.15,2013-04-25 12:36:00,
2013-04-25 08:41:00,49.3,41.4,29.91,NW,312,12.0,12.0,74,0.00,,,0.03,Wunderground v.1.15,2013-04-25 12:41:00,
2013-04-25 08:46:00,49.1,41.2,29.91,NW,313,12.0,12.0,74,0.00,,,0.03,Wunderground v.1.15,2013-04-25 12:46:00,
2013-04-25 08:51:00,49.3,41.4,29.91,NW,307,10.0,10.0,74,0.00,,,0.03,Wunderground v.1.15,2013-04-25 12:51:00,
2013-04-25 08:56:00,49.2,41.6,29.91,NW,307,7.0,10.0,75,0.00,,,0.03,Wunderground v.1.15,2013-04-25 12:56:00,
2013-04-25 09:01:00,49.1,41.5,29.91,NW,306,7.0,7.0,75,0.00,,,0.03,Wunderground v.1.15,2013-04-25 13:01:00,
2013-04-25 09:06:00,49.1,41.5,29.92,NW,306,7.0,7.0,75,0.00,,,0.03,Wunderground v.1.15,2013-04-25 13:06:00,
2013-04-25 09:11:00,49.2,40.9,29.92,NW,304,6.0,7.0,73,0.00,,,0.03,Wunderground v.1.15,2013-04-25 13:11:00,
2013-04-25 09:16:00,49.8,40.8,29.92,NW,310,7.0,8.0,71,0.00,,,0.03,Wunderground v.1.15,2013-04-25 13:16:00,
2013-04-25 09:21:00,49.9,40.9,29.93,WNW,295,8.0,8.0,71,0.00,,,0.03,Wunderground v.1.15,2013-04-25 13:21:00,
2013-04-25 09:26:00,49.9,40.9,29.94,WNW,299,8.0,8.0,71,0.00,,,0.03,Wunderground v.1.15,2013-04-25 13:26:00,
2013-04-25 09:31:00,50.2,40.4,29.93,NW,308,7.0,8.0,69,0.00,,,0.03,Wunderground v.1.15,2013-04-25 13:31:00,
2013-04-25 09:36:00,49.8,40.8,29.94,NW,304,8.0,8.0,71,0.00,,,0.03,Wunderground v.1.15,2013-04-25 13:36:00,
2013-04-25 09:41:00,49.4,41.1,29.95,WNW,302,9.0,10.0,73,0.00,,,0.03,Wunderground v.1.15,2013-04-25 13:41:00,
2013-04-25 09:46:00,49.6,39.8,29.95,NW,311,10.0,14.0,69,0.00,,,0.03,Wunderground v.1.15,2013-04-25 13:46:00,
2013-04-25 09:51:00,50.0,39.8,29.95,NW,313,12.0,13.0,68,0.00,,,0.03,Wunderground v.1.15,2013-04-25 13:51:00,
2013-04-25 09:56:00,49.8,40.0,29.95,NW,306,12.0,13.0,69,0.00,,,0.03,Wunderground v.1.15,2013-04-25 13:56:00,
2013-04-25 10:01:00,49.6,39.5,29.96,NW,312,10.0,14.0,68,0.00,,,0.03,Wunderground v.1.15,2013-04-25 14:01:00,
2013-04-25 10:06:00,50.0,39.1,29.96,NW,316,11.0,14.0,66,0.00,,,0.03,Wunderground v.1.15,2013-04-25 14:06:00,
2013-04-25 10:11:00,50.3,39.0,29.96,NW,312,12.0,12.0,65,0.00,,,0.03,Wunderground v.1.15,2013-04-25 14:11:00,
2013-04-25 10:16:00,49.9,39.4,29.96,NW,314,11.0,12.0,67,0.00,,,0.03,Wunderground v.1.15,2013-04-25 14:16:00,
2013-04-25 10:21:00,50.0,39.1,29.96,NW,313,11.0,11.0,66,0.00,,,0.03,Wunderground v.1.15,2013-04-25 14:21:00,
2013-04-25 10:26:00,50.1,39.9,29.96,NW,314,11.0,11.0,68,0.00,,,0.03,Wunderground v.1.15,2013-04-25 14:26:00,
2013-04-25 10:31:00,50.1,40.3,29.96,NW,318,9.0,9.0,69,0.00,,,0.03,Wunderground v.1.15,2013-04-25 14:31:00,
2013-04-25 10:36:00,50.3,39.4,29.97,NW,314,7.0,9.0,66,0.00,,,0.03,Wunderground v.1.15,2013-04-25 14:36:00,
2013-04-25 10:41:00,50.4,40.2,29.97,NW,310,7.0,9.0,68,0.00,,,0.03,Wunderground v.1.15,2013-04-25 14:41:00,
2013-04-25 10:46:00,50.7,40.5,29.97,NW,310,6.0,9.0,68,0.00,,,0.03,Wunderground v.1.15,2013-04-25 14:46:00,
2013-04-25 10:56:00,50.6,39.7,29.98,NW,310,8.0,9.0,66,0.00,,,0.03,Wunderground v.1.15,2013-04-25 14:56:00,
2013-04-25 11:01:00,50.8,40.2,29.98,NW,310,7.0,7.0,67,0.00,,,0.03,Wunderground v.1.15,2013-04-25 15:01:00,
2013-04-25 11:11:00,51.9,38.9,29.98,NW,310,7.0,7.0,61,0.00,,,0.03,Wunderground v.1.15,2013-04-25 15:11:00,
2013-04-25 11:16:00,52.5,41.1,29.98,NW,310,5.0,7.0,65,0.00,,,0.03,Wunderground v.1.15,2013-04-25 15:16:00,
2013-04-25 11:21:00,52.7,40.5,29.98,NW,310,4.0,5.0,63,0.00,,,0.03,Wunderground v.1.15,2013-04-25 15:21:00,
2013-04-25 11:26:00,52.9,39.0,29.99,NNW,337,4.0,7.0,59,0.00,,,0.03,Wunderground v.1.15,2013-04-25 15:26:00,
2013-04-25 11:31:00,53.6,39.2,29.99,NNW,346,5.0,6.0,58,0.00,,,0.03,Wunderground v.1.15,2013-04-25 15:31:00,
2013-04-25 11:36:00,54.0,38.2,29.99,NNW,347,5.0,7.0,55,0.00,,,0.03,Wunderground v.1.15,2013-04-25 15:36:00,
2013-04-25 11:41:00,54.5,36.7,29.99,NNW,343,7.0,8.0,51,0.00,,,0.03,Wunderground v.1.15,2013-04-25 15:41:00,
2013-04-25 11:46:00,54.5,37.7,29.99,NNW,337,9.0,9.0,53,0.00,,,0.03,Wunderground v.1.15,2013-04-25 15:46:00,
2013-04-25 11:51:00,54.8,38.0,29.99,NNW,336,7.0,7.0,53,0.00,,,0.03,Wunderground v.1.15,2013-04-25 15:51:00,
2013-04-25 11:56:00,55.5,37.1,29.99,NNW,339,4.0,7.0,50,0.00,,,0.03,Wunderground v.1.15,2013-04-25 15:56:00,
2013-04-25 12:01:00,56.0,39.6,29.99,NNW,340,4.0,5.0,54,0.00,,,0.03,Wunderground v.1.15,2013-04-25 16:01:00,
2013-04-25 12:06:00,56.3,36.8,29.99,NNW,340,4.0,5.0,48,0.00,,,0.03,Wunderground v.1.15,2013-04-25 16:06:00,
2013-04-25 12:11:00,56.7,36.7,29.99,NNW,340,4.0,4.0,47,0.00,,,0.03,Wunderground v.1.15,2013-04-25 16:11:00,
2013-04-25 12:16:00,56.8,35.7,29.99,NNW,339,4.0,5.0,45,0.00,,,0.03,Wunderground v.1.15,2013-04-25 16:16:00,
2013-04-25 12:21:00,57.0,37.5,29.99,NNW,340,4.0,4.0,48,0.00,,,0.03,Wunderground v.1.15,2013-04-25 16:21:00,
2013-04-25 12:26:00,57.8,36.0,29.99,NNW,344,3.0,5.0,44,0.00,,,0.03,Wunderground v.1.15,2013-04-25 16:26:00,
2013-04-25 12:31:00,57.5,34.6,29.99,NNW,343,4.0,6.0,42,0.00,,,0.03,Wunderground v.1.15,2013-04-25 16:31:00,
2013-04-25 12:36:00,57.3,37.8,30.00,North,349,5.0,6.0,48,0.00,,,0.03,Wunderground v.1.15,2013-04-25 16:36:00,
2013-04-25 12:41:00,57.2,34.9,30.00,NNW,341,5.0,5.0,43,0.00,,,0.03,Wunderground v.1.15,2013-04-25 16:41:00,
2013-04-25 12:46:00,57.1,35.9,30.00,NNW,335,6.0,6.0,45,0.00,,,0.03,Wunderground v.1.15,2013-04-25 16:46:00,
2013-04-25 12:51:00,57.3,35.0,30.01,NNW,331,5.0,5.0,43,0.00,,,0.03,Wunderground v.1.15,2013-04-25 16:51:00,
2013-04-25 12:56:00,57.3,35.6,30.01,NNW,335,5.0,6.0,44,0.00,,,0.03,Wunderground v.1.15,2013-04-25 16:56:00,
2013-04-25 13:01:00,57.4,36.2,30.00,NW,312,5.0,7.0,45,0.00,,,0.03,Wunderground v.1.15,2013-04-25 17:01:00,
2013-04-25 13:06:00,57.1,37.0,30.01,NW,314,5.0,7.0,47,0.00,,,0.03,Wunderground v.1.15,2013-04-25 17:06:00,
2013-04-25 13:11:00,57.3,36.7,30.01,NNW,339,5.0,7.0,46,0.00,,,0.03,Wunderground v.1.15,2013-04-25 17:11:00,
2013-04-25 13:16:00,56.8,37.8,30.01,NNW,339,6.0,7.0,49,0.00,,,0.03,Wunderground v.1.15,2013-04-25 17:16:00,
2013-04-25 13:21:00,56.2,38.3,30.01,NNW,340,7.0,7.0,51,0.00,,,0.03,Wunderground v.1.15,2013-04-25 17:21:00,
2013-04-25 13:26:00,56.0,37.6,30.01,NNW,340,6.0,8.0,50,0.00,,,0.03,Wunderground v.1.15,2013-04-25 17:26:00,
2013-04-25 13:31:00,56.0,34.9,30.02,NNW,343,6.0,6.0,45,0.00,,,0.03,Wunderground v.1.15,2013-04-25 17:31:00,
2013-04-25 13:36:00,57.0,34.1,30.02,NNW,340,7.0,7.0,42,0.00,,,0.03,Wunderground v.1.15,2013-04-25 17:36:00,
2013-04-25 13:41:00,57.6,35.8,30.02,NNW,331,6.0,8.0,44,0.00,,,0.03,Wunderground v.1.15,2013-04-25 17:41:00,
2013-04-25 13:46:00,58.4,36.0,30.02,NNW,339,5.0,8.0,43,0.00,,,0.03,Wunderground v.1.15,2013-04-25 17:46:00,
2013-04-25 13:51:00,58.1,35.1,30.02,NNW,334,7.0,7.0,42,0.00,,,0.03,Wunderground v.1.15,2013-04-25 17:51:00,
2013-04-25 13:56:00,57.8,35.4,30.03,NNW,333,8.0,11.0,43,0.00,,,0.03,Wunderground v.1.15,2013-04-25 17:56:00,
2013-04-25 14:01:00,57.5,36.3,30.03,NW,325,8.0,8.0,45,0.00,,,0.03,Wunderground v.1.15,2013-04-25 18:01:00,
2013-04-25 14:06:00,58.6,36.2,30.03,NNW,334,6.0,8.0,43,0.00,,,0.03,Wunderground v.1.15,2013-04-25 18:06:00,
2013-04-25 14:11:00,60.0,36.2,30.03,North,352,3.0,5.0,41,0.00,,,0.03,Wunderground v.1.15,2013-04-25 18:11:00,
2013-04-25 14:16:00,61.1,34.6,30.03,NNW,339,3.0,5.0,37,0.00,,,0.03,Wunderground v.1.15,2013-04-25 18:16:00,
2013-04-25 14:21:00,61.7,34.5,30.03,ENE,61,3.0,3.0,36,0.00,,,0.03,Wunderground v.1.15,2013-04-25 18:21:00,
2013-04-25 14:26:00,61.7,35.8,30.03,NNW,337,3.0,9.0,38,0.00,,,0.03,Wunderground v.1.15,2013-04-25 18:26:00,
2013-04-25 14:31:00,61.1,34.6,30.03,North,352,3.0,3.0,37,0.00,,,0.03,Wunderground v.1.15,2013-04-25 18:31:00,
2013-04-25 14:36:00,61.1,35.9,30.03,NNW,338,4.0,4.0,39,0.00,,,0.03,Wunderground v.1.15,2013-04-25 18:36:00,
2013-04-25 14:41:00,61.5,32.8,30.03,NNW,341,4.0,4.0,34,0.00,,,0.03,Wunderground v.1.15,2013-04-25 18:41:00,
2013-04-25 14:46:00,61.4,36.2,30.03,North,356,4.0,4.0,39,0.00,,,0.03,Wunderground v.1.15,2013-04-25 18:46:00,
2013-04-25 14:51:00,61.5,35.0,30.02,NNW,346,3.0,3.0,37,0.00,,,0.03,Wunderground v.1.15,2013-04-25 18:51:00,
2013-04-25 14:56:00,61.1,35.3,30.02,North,358,4.0,4.0,38,0.00,,,0.03,Wunderground v.1.15,2013-04-25 18:56:00,
2013-04-25 15:02:00,61.3,36.1,30.03,North,359,4.0,4.0,39,0.00,,,0.03,Wunderground v.1.15,2013-04-25 19:02:00,
2013-04-25 15:11:00,60.2,38.8,30.02,NNW,338,4.0,6.0,45,0.00,,,0.03,Wunderground v.1.15,2013-04-25 19:11:00,
2013-04-25 15:16:00,59.0,36.5,30.02,NNW,338,5.0,6.0,43,0.00,,,0.03,Wunderground v.1.15,2013-04-25 19:16:00,
2013-04-25 15:21:00,59.1,34.1,30.02,NNW,338,3.0,3.0,39,0.00,,,0.03,Wunderground v.1.15,2013-04-25 19:21:00,
2013-04-25 15:26:00,58.3,42.2,30.02,NW,313,4.0,5.0,55,0.00,,,0.03,Wunderground v.1.15,2013-04-25 19:26:00,
2013-04-25 15:31:00,56.9,38.9,30.02,NW,308,4.0,5.0,51,0.00,,,0.03,Wunderground v.1.15,2013-04-25 19:31:00,
2013-04-25 15:36:00,57.6,38.0,30.02,NW,308,4.0,5.0,48,0.00,,,0.03,Wunderground v.1.15,2013-04-25 19:36:00,
2013-04-25 15:41:00,58.7,36.2,30.02,NW,308,2.0,3.0,43,0.00,,,0.03,Wunderground v.1.15,2013-04-25 19:41:00,
2013-04-25 15:46:00,59.0,38.8,30.03,NW,308,2.0,3.0,47,0.00,,,0.03,Wunderground v.1.15,2013-04-25 19:46:00,
2013-04-25 15:51:00,58.5,39.4,30.02,West,275,3.0,6.0,49,0.00,,,0.03,Wunderground v.1.15,2013-04-25 19:51:00,
2013-04-25 15:56:00,57.9,39.4,30.03,WSW,244,4.0,6.0,50,0.00,,,0.03,Wunderground v.1.15,2013-04-25 19:56:00,
2013-04-25 16:01:00,58.2,38.1,30.03,SW,225,3.0,6.0,47,0.00,,,0.03,Wunderground v.1.15,2013-04-25 20:01:00,
2013-04-25 16:11:00,57.8,38.8,30.03,SW,233,4.0,4.0,49,0.00,,,0.03,Wunderground v.1.15,2013-04-25 20:11:00,
2013-04-25 16:16:00,57.8,39.8,30.03,WSW,239,4.0,4.0,51,0.00,,,0.03,Wunderground v.1.15,2013-04-25 20:16:00,
2013-04-25 16:21:00,58.0,40.0,30.03,WSW,244,4.0,4.0,51,0.00,,,0.03,Wunderground v.1.15,2013-04-25 20:21:00,
2013-04-25 16:30:00,58.2,38.1,30.04,SSW,200,4.0,4.0,47,0.00,,,0.03,Wunderground v.1.15,2013-04-25 20:30:00,
2013-04-25 16:35:00,58.4,37.7,30.04,SSW,207,4.0,4.0,46,0.00,,,0.03,Wunderground v.1.15,2013-04-25 20:35:00,
2013-04-25 16:40:00,57.9,37.2,30.04,South,191,3.0,6.0,46,0.00,,,0.03,Wunderground v.1.15,2013-04-25 20:40:00,
2013-04-25 16:45:00,57.3,38.3,30.04,SW,215,3.0,6.0,49,0.00,,,0.03,Wunderground v.1.15,2013-04-25 20:45:00,
2013-04-25 16:50:00,57.2,38.7,30.05,South,182,4.0,4.0,50,0.00,,,0.03,Wunderground v.1.15,2013-04-25 20:50:00,
2013-04-25 16:55:00,57.6,39.1,30.05,SSE,167,3.0,4.0,50,0.00,,,0.03,Wunderground v.1.15,2013-04-25 20:55:00,
2013-04-25 17:01:00,57.7,37.6,30.05,SSE,157,3.0,3.0,47,0.00,,,0.03,Wunderground v.1.15,2013-04-25 21:01:00,
2013-04-25 17:05:00,57.6,38.0,30.05,WSW,242,4.0,4.0,48,0.00,,,0.03,Wunderground v.1.15,2013-04-25 21:05:00,
2013-04-25 17:10:00,57.7,38.1,30.06,SW,215,3.0,6.0,48,0.00,,,0.03,Wunderground v.1.15,2013-04-25 21:10:00,
2013-04-25 17:15:00,58.0,38.4,30.06,SSW,211,3.0,6.0,48,0.00,,,0.03,Wunderground v.1.15,2013-04-25 21:15:00,
2013-04-25 17:20:00,58.0,38.4,30.06,SW,215,3.0,3.0,48,0.00,,,0.03,Wunderground v.1.15,2013-04-25 21:20:00,
2013-04-25 17:25:00,58.0,38.9,30.06,SW,215,2.0,3.0,49,0.00,,,0.03,Wunderground v.1.15,2013-04-25 21:25:00,
2013-04-25 17:30:00,57.9,38.8,30.06,SW,215,2.0,5.0,49,0.00,,,0.03,Wunderground v.1.15,2013-04-25 21:30:00,
2013-04-25 17:35:00,57.1,37.6,30.07,South,183,3.0,5.0,48,0.00,,,0.03,Wunderground v.1.15,2013-04-25 21:35:00,
2013-04-25 17:40:00,56.9,39.4,30.06,South,186,3.0,3.0,52,0.00,,,0.03,Wunderground v.1.15,2013-04-25 21:40:00,
2013-04-25 17:45:00,57.1,39.1,30.07,SSW,193,2.0,3.0,51,0.00,,,0.03,Wunderground v.1.15,2013-04-25 21:45:00,
2013-04-25 17:50:00,57.1,38.6,30.08,SW,215,3.0,6.0,50,0.00,,,0.03,Wunderground v.1.15,2013-04-25 21:50:00,
2013-04-25 17:55:00,56.8,38.3,30.08,SW,225,3.0,6.0,50,0.00,,,0.03,Wunderground v.1.15,2013-04-25 21:55:00,
2013-04-25 18:01:00,56.5,39.6,30.08,SW,225,3.0,3.0,53,0.00,,,0.03,Wunderground v.1.15,2013-04-25 22:01:00,
2013-04-25 18:05:00,56.5,39.6,30.08,SW,225,3.0,5.0,53,0.00,,,0.03,Wunderground v.1.15,2013-04-25 22:05:00,
2013-04-25 18:10:00,56.2,40.7,30.08,SW,225,3.0,3.0,56,0.00,,,0.03,Wunderground v.1.15,2013-04-25 22:10:00,
2013-04-25 18:15:00,55.1,41.5,30.08,SW,225,4.0,4.0,60,0.00,,,0.03,Wunderground v.1.15,2013-04-25 22:15:00,
2013-04-25 18:20:00,54.2,41.9,30.08,SW,225,3.0,3.0,63,0.00,,,0.03,Wunderground v.1.15,2013-04-25 22:20:00,
2013-04-25 18:25:00,54.0,42.5,30.08,SW,225,2.0,3.0,65,0.00,,,0.03,Wunderground v.1.15,2013-04-25 22:25:00,
2013-04-25 18:30:00,54.0,42.1,30.09,SW,225,1.0,3.0,64,0.00,,,0.03,Wunderground v.1.15,2013-04-25 22:30:00,
2013-04-25 18:35:00,53.6,41.7,30.09,SW,225,1.0,3.0,64,0.00,,,0.03,Wunderground v.1.15,2013-04-25 22:35:00,
2013-04-25 18:41:00,53.4,41.5,30.10,SW,225,1.0,1.0,64,0.00,,,0.03,Wunderground v.1.15,2013-04-25 22:41:00,
2013-04-25 18:46:00,53.2,42.1,30.10,SW,225,1.0,2.0,66,0.00,,,0.03,Wunderground v.1.15,2013-04-25 22:46:00,
2013-04-25 18:50:00,52.8,41.7,30.10,SW,225,1.0,1.0,66,0.00,,,0.03,Wunderground v.1.15,2013-04-25 22:50:00,
2013-04-25 18:56:00,52.6,41.6,30.10,SW,225,0.0,1.0,66,0.00,,,0.03,Wunderground v.1.15,2013-04-25 22:56:00,
2013-04-25 19:01:00,52.4,41.0,30.11,SW,225,0.0,1.0,65,0.00,,,0.03,Wunderground v.1.15,2013-04-25 23:01:00,
2013-04-25 19:05:00,51.6,41.8,30.11,WSW,257,2.0,2.0,69,0.00,,,0.03,Wunderground v.1.15,2013-04-25 23:05:00,
2013-04-25 19:10:00,50.4,41.7,30.11,WSW,257,2.0,2.0,72,0.00,,,0.03,Wunderground v.1.15,2013-04-25 23:10:00,
2013-04-25 19:15:00,49.8,41.8,30.11,WSW,257,0.0,2.0,74,0.00,,,0.03,Wunderground v.1.15,2013-04-25 23:15:00,
2013-04-25 19:21:00,49.6,42.0,30.12,WSW,257,1.0,2.0,75,0.00,,,0.03,Wunderground v.1.15,2013-04-25 23:21:00,
2013-04-25 19:26:00,49.3,42.1,30.12,WSW,257,1.0,2.0,76,0.00,,,0.03,Wunderground v.1.15,2013-04-25 23:26:00,
2013-04-25 19:31:00,49.2,42.3,30.13,WSW,257,1.0,1.0,77,0.00,,,0.03,Wunderground v.1.15,2013-04-25 23:31:00,
2013-04-25 19:36:00,48.8,42.2,30.13,WSW,257,1.0,1.0,78,0.00,,,0.03,Wunderground v.1.15,2013-04-25 23:36:00,
2013-04-25 19:45:00,48.5,42.0,30.13,WSW,257,0.0,0.0,78,0.00,,,0.03,Wunderground v.1.15,2013-04-25 23:45:00,
2013-04-25 19:50:00,48.3,41.8,30.14,WSW,257,0.0,1.0,78,0.00,,,0.03,Wunderground v.1.15,2013-04-25 23:50:00,
2013-04-25 19:56:00,48.2,41.7,30.14,WSW,257,1.0,1.0,78,0.00,,,0.03,Wunderground v.1.15,2013-04-25 23:56:00,
2013-04-25 20:01:00,48.2,41.7,30.14,WSW,257,1.0,1.0,78,0.00,,,0.03,Wunderground v.1.15,2013-04-26 00:01:00,
2013-04-25 20:06:00,48.2,41.7,30.15,WSW,257,1.0,1.0,78,0.00,,,0.03,Wunderground v.1.15,2013-04-26 00:06:00,
2013-04-25 20:11:00,48.3,41.4,30.15,WSW,257,1.0,1.0,77,0.00,,,0.03,Wunderground v.1.15,2013-04-26 00:11:00,
2013-04-25 20:16:00,48.5,41.3,30.15,WSW,257,0.0,1.0,76,0.00,,,0.03,Wunderground v.1.15,2013-04-26 00:16:00,
2013-04-25 20:20:00,48.6,41.0,30.16,WSW,257,1.0,1.0,75,0.00,,,0.03,Wunderground v.1.15,2013-04-26 00:20:00,
2013-04-25 20:25:00,48.8,40.9,30.16,WSW,257,1.0,2.0,74,0.00,,,0.03,Wunderground v.1.15,2013-04-26 00:25:00,
2013-04-25 20:30:00,49.0,40.7,30.16,WSW,257,1.0,2.0,73,0.00,,,0.03,Wunderground v.1.15,2013-04-26 00:30:00,
2013-04-25 20:35:00,49.1,40.8,30.17,WSW,257,1.0,2.0,73,0.00,,,0.03,Wunderground v.1.15,2013-04-26 00:35:00,
2013-04-25 20:40:00,49.0,40.7,30.17,WSW,257,0.0,0.0,73,0.00,,,0.03,Wunderground v.1.15,2013-04-26 00:40:00,
2013-04-25 20:46:00,48.9,40.3,30.17,WSW,257,0.0,0.0,72,0.00,,,0.03,Wunderground v.1.15,2013-04-26 00:46:00,
2013-04-25 20:51:00,48.9,39.5,30.18,WSW,257,0.0,0.0,70,0.00,,,0.03,Wunderground v.1.15,2013-04-26 00:51:00,
2013-04-25 21:55:00,48.3,33.3,30.20,N/A,-737280,0.0,-999.0,56,0.00,,,0.03,Wunderground v.1.15,2013-04-26 01:55:00,
2013-04-25 22:00:00,48.1,33.6,30.20,WSW,248,0.0,-999.0,57,0.00,,,0.03,Wunderground v.1.15,2013-04-26 02:00:00,
2013-04-25 22:05:00,47.8,32.9,30.21,WSW,248,0.0,-999.0,56,0.00,,,0.03,Wunderground v.1.15,2013-04-26 02:05:00,
2013-04-25 22:10:00,47.6,33.1,30.21,WSW,248,0.0,-999.0,57,0.00,,,0.03,Wunderground v.1.15,2013-04-26 02:10:00,
2013-04-25 22:15:00,47.4,32.5,30.21,WSW,248,0.0,-999.0,56,0.00,,,0.03,Wunderground v.1.15,2013-04-26 02:15:00,
2013-04-25 22:20:00,47.3,32.4,30.21,WSW,248,0.0,-999.0,56,0.00,,,0.03,Wunderground v.1.15,2013-04-26 02:20:00,
2013-04-25 22:25:00,47.3,31.5,30.21,WSW,248,0.0,-999.0,54,0.00,,,0.03,Wunderground v.1.15,2013-04-26 02:25:00,
2013-04-25 22:30:00,47.2,31.8,30.21,WSW,248,0.0,-999.0,55,0.00,,,0.03,Wunderground v.1.15,2013-04-26 02:30:00,
2013-04-25 22:35:00,47.2,31.8,30.21,WSW,248,0.0,-999.0,55,0.00,,,0.03,Wunderground v.1.15,2013-04-26 02:35:00,
2013-04-25 22:40:00,47.0,31.7,30.21,WSW,248,0.0,-999.0,55,0.00,,,0.03,Wunderground v.1.15,2013-04-26 02:40:00,
2013-04-25 22:45:00,46.9,31.1,30.21,WSW,248,0.0,-999.0,54,0.00,,,0.03,Wunderground v.1.15,2013-04-26 02:45:00,
2013-04-25 22:50:00,46.8,31.0,30.21,WSW,248,0.0,-999.0,54,0.00,,,0.03,Wunderground v.1.15,2013-04-26 02:50:00,
2013-04-25 22:55:00,46.8,31.0,30.21,WSW,248,0.0,-999.0,54,0.00,,,0.03,Wunderground v.1.15,2013-04-26 02:55:00,
2013-04-25 23:00:00,46.7,30.5,30.22,WSW,248,0.0,-999.0,53,0.00,,,0.03,Wunderground v.1.15,2013-04-26 03:00:00,
2013-04-25 23:05:00,46.7,30.9,30.22,WSW,248,0.0,-999.0,54,0.00,,,0.03,Wunderground v.1.15,2013-04-26 03:05:00,
2013-04-25 23:10:00,46.7,30.9,30.22,WSW,248,0.0,-999.0,54,0.00,,,0.03,Wunderground v.1.15,2013-04-26 03:10:00,
2013-04-25 23:15:00,46.6,30.8,30.22,WSW,248,0.0,-999.0,54,0.00,,,0.03,Wunderground v.1.15,2013-04-26 03:15:00,
2013-04-25 23:20:00,46.4,30.6,30.23,WSW,248,0.0,-999.0,54,0.00,,,0.03,Wunderground v.1.15,2013-04-26 03:20:00,
2013-04-25 23:25:00,46.3,30.1,30.23,N/A,-737280,0.0,-999.0,53,0.00,,,0.03,Wunderground v.1.15,2013-04-26 03:25:00,
2013-04-25 23:30:00,46.1,31.3,30.23,WSW,248,0.0,-999.0,56,0.00,,,0.03,Wunderground v.1.15,2013-04-26 03:30:00,
2013-04-25 23:35:00,45.9,31.5,30.23,WSW,248,0.0,-999.0,57,0.00,,,0.03,Wunderground v.1.15,2013-04-26 03:35:00,
2013-04-25 23:40:00,45.6,30.3,30.23,WSW,248,0.0,-999.0,55,0.00,,,0.03,Wunderground v.1.15,2013-04-26 03:40:00,
2013-04-25 23:45:00,45.6,30.8,30.23,WSW,248,0.0,-999.0,56,0.00,,,0.03,Wunderground v.1.15,2013-04-26 03:45:00,
2013-04-25 23:50:00,45.5,31.1,30.23,WSW,248,0.0,-999.0,57,0.00,,,0.03,Wunderground v.1.15,2013-04-26 03:50:00,
2013-04-25 23:55:00,45.3,31.0,30.23,WSW,248,0.0,-999.0,57,0.00,,,0.03,Wunderground v.1.15,2013-04-26 03:55:00,